sensor_id;sensor_type;location;lat;lon;timestamp;P1;durP1;ratioP1;P2;durP2;ratioP2
39074;SDS011;24826;52.070;20.970;2023-02-03T00:03:02;4.88;;;2.55;;
39074;SDS011;24826;52.070;20.970;2023-02-03T00:05:47;6.07;;;2.35;;
39074;SDS011;24826;52.070;20.970;2023-02-03T00:08:32;8.35;;;2.78;;
39074;SDS011;24826;52.070;20.970;2023-02-03T00:11:17;4.97;;;2.38;;
39074;SDS011;24826;52.070;20.970;2023-02-03T00:14:01;6.70;;;2.45;;
39074;SDS011;24826;52.070;20.970;2023-02-03T00:16:48;5.38;;;2.55;;
39074;SDS011;24826;52.070;20.970;2023-02-03T00:19:32;4.38;;;2.28;;
39074;SDS011;24826;52.070;20.970;2023-02-03T00:22:16;7.72;;;2.78;;
39074;SDS011;24826;52.070;20.970;2023-02-03T00:25:01;5.55;;;2.58;;
39074;SDS011;24826;52.070;20.970;2023-02-03T00:27:46;6.90;;;2.28;;
39074;SDS011;24826;52.070;20.970;2023-02-03T00:30:33;4.60;;;2.20;;
39074;SDS011;24826;52.070;20.970;2023-02-03T00:33:18;6.05;;;2.60;;
39074;SDS011;24826;52.070;20.970;2023-02-03T00:36:04;6.50;;;2.63;;
39074;SDS011;24826;52.070;20.970;2023-02-03T00:38:49;7.43;;;2.50;;
39074;SDS011;24826;52.070;20.970;2023-02-03T00:41:33;6.75;;;2.42;;
39074;SDS011;24826;52.070;20.970;2023-02-03T00:44:18;6.60;;;2.38;;
39074;SDS011;24826;52.070;20.970;2023-02-03T00:47:02;5.50;;;2.53;;
39074;SDS011;24826;52.070;20.970;2023-02-03T00:49:46;4.55;;;2.40;;
39074;SDS011;24826;52.070;20.970;2023-02-03T00:52:31;5.95;;;2.50;;
39074;SDS011;24826;52.070;20.970;2023-02-03T00:55:16;5.93;;;2.40;;
39074;SDS011;24826;52.070;20.970;2023-02-03T00:58:00;8.75;;;3.03;;
39074;SDS011;24826;52.070;20.970;2023-02-03T01:00:44;7.43;;;3.40;;
39074;SDS011;24826;52.070;20.970;2023-02-03T01:03:29;7.45;;;3.10;;
39074;SDS011;24826;52.070;20.970;2023-02-03T01:06:19;5.82;;;2.45;;
39074;SDS011;24826;52.070;20.970;2023-02-03T01:09:04;4.85;;;2.42;;
39074;SDS011;24826;52.070;20.970;2023-02-03T01:11:49;8.02;;;2.40;;
39074;SDS011;24826;52.070;20.970;2023-02-03T01:14:34;5.72;;;2.10;;
39074;SDS011;24826;52.070;20.970;2023-02-03T01:17:18;4.40;;;2.20;;
39074;SDS011;24826;52.070;20.970;2023-02-03T01:20:03;5.05;;;2.22;;
39074;SDS011;24826;52.070;20.970;2023-02-03T01:22:48;6.10;;;2.22;;
39074;SDS011;24826;52.070;20.970;2023-02-03T01:25:33;7.50;;;2.38;;
39074;SDS011;24826;52.070;20.970;2023-02-03T01:28:18;4.50;;;1.88;;
39074;SDS011;24826;52.070;20.970;2023-02-03T01:31:25;5.78;;;2.30;;
39074;SDS011;24826;52.070;20.970;2023-02-03T01:34:10;6.03;;;2.50;;
39074;SDS011;24826;52.070;20.970;2023-02-03T01:36:56;7.57;;;2.63;;
39074;SDS011;24826;52.070;20.970;2023-02-03T01:39:40;5.15;;;2.22;;
39074;SDS011;24826;52.070;20.970;2023-02-03T01:42:25;5.80;;;2.70;;
39074;SDS011;24826;52.070;20.970;2023-02-03T01:45:09;4.65;;;2.03;;
39074;SDS011;24826;52.070;20.970;2023-02-03T01:47:54;5.47;;;2.63;;
39074;SDS011;24826;52.070;20.970;2023-02-03T01:50:42;5.32;;;2.25;;
39074;SDS011;24826;52.070;20.970;2023-02-03T01:53:27;5.82;;;2.38;;
39074;SDS011;24826;52.070;20.970;2023-02-03T01:56:12;6.03;;;2.55;;
39074;SDS011;24826;52.070;20.970;2023-02-03T01:58:57;5.20;;;2.17;;
39074;SDS011;24826;52.070;20.970;2023-02-03T02:01:43;4.75;;;2.30;;
39074;SDS011;24826;52.070;20.970;2023-02-03T02:04:33;7.10;;;2.22;;
39074;SDS011;24826;52.070;20.970;2023-02-03T02:07:25;5.85;;;1.98;;
39074;SDS011;24826;52.070;20.970;2023-02-03T02:10:10;4.63;;;2.30;;
39074;SDS011;24826;52.070;20.970;2023-02-03T02:12:57;5.03;;;2.53;;
39074;SDS011;24826;52.070;20.970;2023-02-03T02:15:57;4.30;;;1.75;;
39074;SDS011;24826;52.070;20.970;2023-02-03T02:37:00;5.70;;;2.25;;
39074;SDS011;24826;52.070;20.970;2023-02-03T02:45:56;6.17;;;2.20;;
39074;SDS011;24826;52.070;20.970;2023-02-03T02:48:46;5.25;;;1.60;;
39074;SDS011;24826;52.070;20.970;2023-02-03T02:51:35;5.25;;;1.83;;
39074;SDS011;24826;52.070;20.970;2023-02-03T02:54:22;5.93;;;2.13;;
39074;SDS011;24826;52.070;20.970;2023-02-03T02:57:10;5.72;;;2.17;;
39074;SDS011;24826;52.070;20.970;2023-02-03T02:59:57;7.05;;;2.83;;
39074;SDS011;24826;52.070;20.970;2023-02-03T03:02:42;5.80;;;2.55;;
39074;SDS011;24826;52.070;20.970;2023-02-03T03:05:26;3.83;;;2.20;;
39074;SDS011;24826;52.070;20.970;2023-02-03T03:08:12;6.82;;;3.00;;
39074;SDS011;24826;52.070;20.970;2023-02-03T03:10:59;5.63;;;2.45;;
39074;SDS011;24826;52.070;20.970;2023-02-03T03:13:49;6.47;;;2.63;;
39074;SDS011;24826;52.070;20.970;2023-02-03T03:16:36;5.38;;;2.90;;
39074;SDS011;24826;52.070;20.970;2023-02-03T03:19:26;6.35;;;2.67;;
39074;SDS011;24826;52.070;20.970;2023-02-03T03:22:15;7.28;;;2.83;;
39074;SDS011;24826;52.070;20.970;2023-02-03T03:25:05;6.85;;;3.13;;
39074;SDS011;24826;52.070;20.970;2023-02-03T03:28:01;7.13;;;3.10;;
39074;SDS011;24826;52.070;20.970;2023-02-03T03:30:49;6.60;;;3.05;;
39074;SDS011;24826;52.070;20.970;2023-02-03T03:33:34;5.78;;;3.00;;
39074;SDS011;24826;52.070;20.970;2023-02-03T03:39:22;8.45;;;3.15;;
39074;SDS011;24826;52.070;20.970;2023-02-03T03:42:20;7.72;;;3.50;;
39074;SDS011;24826;52.070;20.970;2023-02-03T03:48:18;7.13;;;3.90;;
39074;SDS011;24826;52.070;20.970;2023-02-03T03:51:14;6.60;;;3.40;;
39074;SDS011;24826;52.070;20.970;2023-02-03T03:54:06;5.60;;;2.90;;
39074;SDS011;24826;52.070;20.970;2023-02-03T03:56:55;5.72;;;3.10;;
39074;SDS011;24826;52.070;20.970;2023-02-03T03:59:49;4.78;;;2.53;;
39074;SDS011;24826;52.070;20.970;2023-02-03T04:02:34;7.25;;;3.40;;
39074;SDS011;24826;52.070;20.970;2023-02-03T04:05:22;7.65;;;3.42;;
39074;SDS011;24826;52.070;20.970;2023-02-03T04:08:07;6.63;;;2.92;;
39074;SDS011;24826;52.070;20.970;2023-02-03T04:10:51;5.82;;;3.10;;
39074;SDS011;24826;52.070;20.970;2023-02-03T04:13:35;5.95;;;3.20;;
39074;SDS011;24826;52.070;20.970;2023-02-03T04:16:20;7.15;;;3.63;;
39074;SDS011;24826;52.070;20.970;2023-02-03T04:19:04;5.80;;;3.10;;
39074;SDS011;24826;52.070;20.970;2023-02-03T04:21:49;7.38;;;3.15;;
39074;SDS011;24826;52.070;20.970;2023-02-03T04:24:34;6.25;;;3.30;;
39074;SDS011;24826;52.070;20.970;2023-02-03T04:27:18;5.05;;;2.78;;
39074;SDS011;24826;52.070;20.970;2023-02-03T04:30:03;6.45;;;3.10;;
39074;SDS011;24826;52.070;20.970;2023-02-03T04:32:48;7.07;;;3.00;;
39074;SDS011;24826;52.070;20.970;2023-02-03T04:35:32;6.80;;;2.95;;
39074;SDS011;24826;52.070;20.970;2023-02-03T04:38:17;7.13;;;3.42;;
39074;SDS011;24826;52.070;20.970;2023-02-03T04:41:01;7.22;;;3.50;;
39074;SDS011;24826;52.070;20.970;2023-02-03T04:43:46;7.55;;;3.40;;
39074;SDS011;24826;52.070;20.970;2023-02-03T04:46:30;7.97;;;3.63;;
39074;SDS011;24826;52.070;20.970;2023-02-03T04:49:14;9.70;;;3.25;;
39074;SDS011;24826;52.070;20.970;2023-02-03T04:52:00;5.85;;;2.95;;
39074;SDS011;24826;52.070;20.970;2023-02-03T04:54:45;7.43;;;3.42;;
39074;SDS011;24826;52.070;20.970;2023-02-03T04:57:29;10.15;;;3.53;;
39074;SDS011;24826;52.070;20.970;2023-02-03T05:00:14;7.13;;;3.25;;
39074;SDS011;24826;52.070;20.970;2023-02-03T05:02:58;6.70;;;3.00;;
39074;SDS011;24826;52.070;20.970;2023-02-03T05:05:43;5.50;;;2.90;;
39074;SDS011;24826;52.070;20.970;2023-02-03T05:08:27;9.00;;;3.08;;
39074;SDS011;24826;52.070;20.970;2023-02-03T05:11:13;6.47;;;3.10;;
39074;SDS011;24826;52.070;20.970;2023-02-03T05:13:57;8.82;;;3.13;;
39074;SDS011;24826;52.070;20.970;2023-02-03T05:16:42;6.75;;;2.90;;
39074;SDS011;24826;52.070;20.970;2023-02-03T05:19:26;7.88;;;3.33;;
39074;SDS011;24826;52.070;20.970;2023-02-03T05:22:10;6.78;;;3.05;;
39074;SDS011;24826;52.070;20.970;2023-02-03T05:24:55;7.47;;;3.40;;
39074;SDS011;24826;52.070;20.970;2023-02-03T05:27:39;7.93;;;3.15;;
39074;SDS011;24826;52.070;20.970;2023-02-03T05:30:25;6.60;;;2.70;;
39074;SDS011;24826;52.070;20.970;2023-02-03T05:33:09;7.30;;;3.15;;
39074;SDS011;24826;52.070;20.970;2023-02-03T05:35:54;9.75;;;3.33;;
39074;SDS011;24826;52.070;20.970;2023-02-03T05:38:38;8.27;;;3.05;;
39074;SDS011;24826;52.070;20.970;2023-02-03T05:41:22;9.15;;;3.30;;
39074;SDS011;24826;52.070;20.970;2023-02-03T05:44:26;6.18;;;2.92;;
39074;SDS011;24826;52.070;20.970;2023-02-03T05:47:11;7.53;;;3.08;;
39074;SDS011;24826;52.070;20.970;2023-02-03T05:49:56;10.15;;;3.30;;
39074;SDS011;24826;52.070;20.970;2023-02-03T05:52:40;6.85;;;2.78;;
39074;SDS011;24826;52.070;20.970;2023-02-03T05:55:25;7.60;;;3.95;;
39074;SDS011;24826;52.070;20.970;2023-02-03T05:58:10;6.60;;;3.00;;
39074;SDS011;24826;52.070;20.970;2023-02-03T06:00:54;7.28;;;3.25;;
39074;SDS011;24826;52.070;20.970;2023-02-03T06:03:38;7.20;;;2.92;;
39074;SDS011;24826;52.070;20.970;2023-02-03T06:06:23;9.90;;;3.50;;
39074;SDS011;24826;52.070;20.970;2023-02-03T06:09:07;7.40;;;3.80;;
39074;SDS011;24826;52.070;20.970;2023-02-03T06:11:51;9.85;;;3.75;;
39074;SDS011;24826;52.070;20.970;2023-02-03T06:14:36;6.97;;;3.55;;
39074;SDS011;24826;52.070;20.970;2023-02-03T06:17:20;8.65;;;3.60;;
39074;SDS011;24826;52.070;20.970;2023-02-03T06:20:05;8.05;;;3.45;;
39074;SDS011;24826;52.070;20.970;2023-02-03T06:22:51;8.68;;;3.47;;
39074;SDS011;24826;52.070;20.970;2023-02-03T06:25:35;6.25;;;3.75;;
39074;SDS011;24826;52.070;20.970;2023-02-03T06:28:20;8.35;;;3.63;;
39074;SDS011;24826;52.070;20.970;2023-02-03T06:31:05;7.68;;;3.38;;
39074;SDS011;24826;52.070;20.970;2023-02-03T06:33:49;7.28;;;3.42;;
39074;SDS011;24826;52.070;20.970;2023-02-03T06:36:33;6.38;;;3.15;;
39074;SDS011;24826;52.070;20.970;2023-02-03T06:39:18;8.43;;;3.65;;
39074;SDS011;24826;52.070;20.970;2023-02-03T06:42:02;11.82;;;4.63;;
39074;SDS011;24826;52.070;20.970;2023-02-03T06:44:47;11.25;;;5.00;;
39074;SDS011;24826;52.070;20.970;2023-02-03T06:47:32;9.52;;;4.22;;
39074;SDS011;24826;52.070;20.970;2023-02-03T06:50:16;8.35;;;3.90;;
39074;SDS011;24826;52.070;20.970;2023-02-03T06:53:00;13.20;;;5.30;;
39074;SDS011;24826;52.070;20.970;2023-02-03T06:55:45;13.32;;;6.35;;
39074;SDS011;24826;52.070;20.970;2023-02-03T06:58:30;13.25;;;6.70;;
39074;SDS011;24826;52.070;20.970;2023-02-03T07:01:15;13.88;;;7.78;;
39074;SDS011;24826;52.070;20.970;2023-02-03T07:03:59;16.65;;;7.68;;
39074;SDS011;24826;52.070;20.970;2023-02-03T07:06:43;19.70;;;8.20;;
39074;SDS011;24826;52.070;20.970;2023-02-03T07:09:28;19.02;;;8.07;;
39074;SDS011;24826;52.070;20.970;2023-02-03T07:12:12;16.42;;;7.35;;
39074;SDS011;24826;52.070;20.970;2023-02-03T07:14:56;22.23;;;9.38;;
39074;SDS011;24826;52.070;20.970;2023-02-03T07:17:40;17.38;;;8.10;;
39074;SDS011;24826;52.070;20.970;2023-02-03T07:20:24;13.00;;;7.35;;
39074;SDS011;24826;52.070;20.970;2023-02-03T07:23:10;20.85;;;7.60;;
39074;SDS011;24826;52.070;20.970;2023-02-03T07:25:57;18.35;;;8.07;;
39074;SDS011;24826;52.070;20.970;2023-02-03T07:28:42;13.02;;;6.30;;
39074;SDS011;24826;52.070;20.970;2023-02-03T07:31:26;16.92;;;7.13;;
39074;SDS011;24826;52.070;20.970;2023-02-03T07:34:11;12.88;;;5.68;;
39074;SDS011;24826;52.070;20.970;2023-02-03T07:36:56;10.57;;;4.82;;
39074;SDS011;24826;52.070;20.970;2023-02-03T07:39:41;14.73;;;6.70;;
39074;SDS011;24826;52.070;20.970;2023-02-03T07:42:26;14.30;;;6.75;;
39074;SDS011;24826;52.070;20.970;2023-02-03T07:45:11;17.35;;;7.30;;
39074;SDS011;24826;52.070;20.970;2023-02-03T07:47:57;18.20;;;7.70;;
39074;SDS011;24826;52.070;20.970;2023-02-03T07:50:41;14.48;;;6.72;;
39074;SDS011;24826;52.070;20.970;2023-02-03T07:53:25;15.70;;;6.18;;
39074;SDS011;24826;52.070;20.970;2023-02-03T07:56:11;12.20;;;5.82;;
39074;SDS011;24826;52.070;20.970;2023-02-03T07:58:55;12.35;;;5.50;;
39074;SDS011;24826;52.070;20.970;2023-02-03T08:01:39;13.88;;;5.53;;
39074;SDS011;24826;52.070;20.970;2023-02-03T08:04:24;14.75;;;6.38;;
39074;SDS011;24826;52.070;20.970;2023-02-03T08:07:08;12.65;;;5.03;;
39074;SDS011;24826;52.070;20.970;2023-02-03T08:09:52;11.27;;;4.95;;
39074;SDS011;24826;52.070;20.970;2023-02-03T08:12:37;9.00;;;4.20;;
39074;SDS011;24826;52.070;20.970;2023-02-03T08:15:22;10.45;;;4.15;;
39074;SDS011;24826;52.070;20.970;2023-02-03T08:18:06;9.68;;;4.05;;
39074;SDS011;24826;52.070;20.970;2023-02-03T08:20:52;8.88;;;4.30;;
39074;SDS011;24826;52.070;20.970;2023-02-03T08:23:37;7.47;;;3.65;;
39074;SDS011;24826;52.070;20.970;2023-02-03T08:26:21;7.60;;;3.35;;
39074;SDS011;24826;52.070;20.970;2023-02-03T08:29:06;8.30;;;4.20;;
39074;SDS011;24826;52.070;20.970;2023-02-03T08:31:50;8.07;;;3.58;;
39074;SDS011;24826;52.070;20.970;2023-02-03T08:34:35;9.82;;;3.50;;
39074;SDS011;24826;52.070;20.970;2023-02-03T08:37:20;6.90;;;2.80;;
39074;SDS011;24826;52.070;20.970;2023-02-03T08:40:08;7.47;;;3.42;;
39074;SDS011;24826;52.070;20.970;2023-02-03T08:42:53;7.20;;;3.30;;
39074;SDS011;24826;52.070;20.970;2023-02-03T08:45:38;6.85;;;3.13;;
39074;SDS011;24826;52.070;20.970;2023-02-03T08:48:23;9.00;;;3.50;;
39074;SDS011;24826;52.070;20.970;2023-02-03T08:51:12;7.43;;;3.80;;
39074;SDS011;24826;52.070;20.970;2023-02-03T08:53:58;9.52;;;3.10;;
39074;SDS011;24826;52.070;20.970;2023-02-03T08:56:43;7.30;;;2.80;;
39074;SDS011;24826;52.070;20.970;2023-02-03T08:59:28;7.20;;;3.08;;
39074;SDS011;24826;52.070;20.970;2023-02-03T09:02:14;9.00;;;3.58;;
39074;SDS011;24826;52.070;20.970;2023-02-03T09:05:00;6.90;;;2.97;;
39074;SDS011;24826;52.070;20.970;2023-02-03T09:07:44;7.88;;;3.15;;
39074;SDS011;24826;52.070;20.970;2023-02-03T09:10:28;7.68;;;3.35;;
39074;SDS011;24826;52.070;20.970;2023-02-03T09:13:13;10.23;;;4.20;;
39074;SDS011;24826;52.070;20.970;2023-02-03T09:15:58;7.90;;;3.50;;
39074;SDS011;24826;52.070;20.970;2023-02-03T09:18:44;6.18;;;2.97;;
39074;SDS011;24826;52.070;20.970;2023-02-03T09:21:29;8.70;;;3.45;;
39074;SDS011;24826;52.070;20.970;2023-02-03T09:24:14;9.02;;;3.83;;
39074;SDS011;24826;52.070;20.970;2023-02-03T09:26:59;7.78;;;3.38;;
39074;SDS011;24826;52.070;20.970;2023-02-03T09:29:44;6.97;;;3.25;;
39074;SDS011;24826;52.070;20.970;2023-02-03T09:32:28;6.32;;;2.92;;
39074;SDS011;24826;52.070;20.970;2023-02-03T09:35:13;8.20;;;3.05;;
39074;SDS011;24826;52.070;20.970;2023-02-03T09:37:58;7.55;;;3.08;;
39074;SDS011;24826;52.070;20.970;2023-02-03T09:40:44;7.07;;;2.80;;
39074;SDS011;24826;52.070;20.970;2023-02-03T09:46:39;5.15;;;2.30;;
39074;SDS011;24826;52.070;20.970;2023-02-03T09:49:35;6.10;;;2.47;;
39074;SDS011;24826;52.070;20.970;2023-02-03T09:52:24;7.38;;;2.05;;
39074;SDS011;24826;52.070;20.970;2023-02-03T09:55:27;6.72;;;2.05;;
39074;SDS011;24826;52.070;20.970;2023-02-03T09:58:17;5.55;;;2.05;;
39074;SDS011;24826;52.070;20.970;2023-02-03T10:01:07;7.05;;;1.70;;
39074;SDS011;24826;52.070;20.970;2023-02-03T10:04:02;4.78;;;1.85;;
39074;SDS011;24826;52.070;20.970;2023-02-03T10:07:06;5.43;;;2.10;;
39074;SDS011;24826;52.070;20.970;2023-02-03T10:10:04;7.90;;;2.22;;
39074;SDS011;24826;52.070;20.970;2023-02-03T10:13:04;5.03;;;2.00;;
39074;SDS011;24826;52.070;20.970;2023-02-03T10:18:57;4.65;;;1.85;;
39074;SDS011;24826;52.070;20.970;2023-02-03T10:21:47;4.65;;;1.80;;
39074;SDS011;24826;52.070;20.970;2023-02-03T10:24:39;5.70;;;1.92;;
39074;SDS011;24826;52.070;20.970;2023-02-03T10:27:31;4.43;;;1.65;;
39074;SDS011;24826;52.070;20.970;2023-02-03T10:30:19;5.22;;;2.15;;
39074;SDS011;24826;52.070;20.970;2023-02-03T10:33:09;4.93;;;1.65;;
39074;SDS011;24826;52.070;20.970;2023-02-03T10:38:59;4.90;;;1.60;;
39074;SDS011;24826;52.070;20.970;2023-02-03T10:41:53;5.72;;;1.95;;
39074;SDS011;24826;52.070;20.970;2023-02-03T10:44:48;4.63;;;1.80;;
39074;SDS011;24826;52.070;20.970;2023-02-03T10:47:39;4.47;;;2.17;;
39074;SDS011;24826;52.070;20.970;2023-02-03T10:50:31;4.55;;;1.70;;
39074;SDS011;24826;52.070;20.970;2023-02-03T10:56:07;5.20;;;2.00;;
39074;SDS011;24826;52.070;20.970;2023-02-03T10:58:58;6.10;;;2.00;;
39074;SDS011;24826;52.070;20.970;2023-02-03T11:01:44;4.40;;;1.83;;
39074;SDS011;24826;52.070;20.970;2023-02-03T11:04:32;7.28;;;2.42;;
39074;SDS011;24826;52.070;20.970;2023-02-03T11:07:24;6.25;;;1.85;;
39074;SDS011;24826;52.070;20.970;2023-02-03T11:13:19;6.20;;;2.20;;
39074;SDS011;24826;52.070;20.970;2023-02-03T11:16:05;5.85;;;2.33;;
39074;SDS011;24826;52.070;20.970;2023-02-03T11:18:55;4.70;;;2.13;;
39074;SDS011;24826;52.070;20.970;2023-02-03T11:21:41;5.20;;;2.13;;
39074;SDS011;24826;52.070;20.970;2023-02-03T11:24:32;6.97;;;3.20;;
39074;SDS011;24826;52.070;20.970;2023-02-03T11:27:22;6.43;;;2.30;;
39074;SDS011;24826;52.070;20.970;2023-02-03T11:30:09;5.55;;;2.25;;
39074;SDS011;24826;52.070;20.970;2023-02-03T11:32:54;4.82;;;1.80;;
39074;SDS011;24826;52.070;20.970;2023-02-03T11:35:53;5.75;;;2.17;;
39074;SDS011;24826;52.070;20.970;2023-02-03T11:38:42;5.85;;;2.22;;
39074;SDS011;24826;52.070;20.970;2023-02-03T11:41:28;7.28;;;2.10;;
39074;SDS011;24826;52.070;20.970;2023-02-03T11:44:21;4.18;;;2.08;;
39074;SDS011;24826;52.070;20.970;2023-02-03T11:47:07;6.85;;;2.42;;
39074;SDS011;24826;52.070;20.970;2023-02-03T11:50:02;6.07;;;2.60;;
39074;SDS011;24826;52.070;20.970;2023-02-03T12:07:39;4.93;;;2.40;;
39074;SDS011;24826;52.070;20.970;2023-02-03T12:10:47;4.82;;;2.45;;
39074;SDS011;24826;52.070;20.970;2023-02-03T12:13:47;5.93;;;2.13;;
39074;SDS011;24826;52.070;20.970;2023-02-03T12:16:54;7.43;;;2.08;;
39074;SDS011;24826;52.070;20.970;2023-02-03T12:19:50;5.97;;;1.90;;
39074;SDS011;24826;52.070;20.970;2023-02-03T12:23:02;4.72;;;2.08;;
39074;SDS011;24826;52.070;20.970;2023-02-03T12:26:02;5.00;;;2.13;;
39074;SDS011;24826;52.070;20.970;2023-02-03T12:28:50;4.65;;;2.03;;
39074;SDS011;24826;52.070;20.970;2023-02-03T12:31:49;6.95;;;2.30;;
39074;SDS011;24826;52.070;20.970;2023-02-03T12:34:38;5.10;;;1.95;;
39074;SDS011;24826;52.070;20.970;2023-02-03T12:37:27;6.85;;;2.90;;
39074;SDS011;24826;52.070;20.970;2023-02-03T12:40:28;7.03;;;2.53;;
39074;SDS011;24826;52.070;20.970;2023-02-03T12:46:28;6.13;;;2.83;;
39074;SDS011;24826;52.070;20.970;2023-02-03T12:52:39;6.20;;;2.75;;
39074;SDS011;24826;52.070;20.970;2023-02-03T12:55:37;7.80;;;3.40;;
39074;SDS011;24826;52.070;20.970;2023-02-03T12:58:27;8.00;;;3.10;;
39074;SDS011;24826;52.070;20.970;2023-02-03T13:01:15;7.53;;;3.17;;
39074;SDS011;24826;52.070;20.970;2023-02-03T13:10:00;8.02;;;2.95;;
39074;SDS011;24826;52.070;20.970;2023-02-03T13:12:50;9.57;;;3.53;;
39074;SDS011;24826;52.070;20.970;2023-02-03T13:15:44;8.82;;;4.03;;
39074;SDS011;24826;52.070;20.970;2023-02-03T13:18:33;7.10;;;3.47;;
39074;SDS011;24826;52.070;20.970;2023-02-03T13:21:20;7.35;;;3.30;;
39074;SDS011;24826;52.070;20.970;2023-02-03T13:24:04;9.95;;;3.83;;
39074;SDS011;24826;52.070;20.970;2023-02-03T13:29:48;7.47;;;3.65;;
39074;SDS011;24826;52.070;20.970;2023-02-03T13:42:25;10.20;;;4.47;;
39074;SDS011;24826;52.070;20.970;2023-02-03T13:48:16;9.55;;;4.53;;
39074;SDS011;24826;52.070;20.970;2023-02-03T13:51:07;11.63;;;4.82;;
39074;SDS011;24826;52.070;20.970;2023-02-03T13:54:02;11.43;;;5.05;;
39074;SDS011;24826;52.070;20.970;2023-02-03T13:56:58;13.27;;;5.53;;
39074;SDS011;24826;52.070;20.970;2023-02-03T13:59:45;9.82;;;4.90;;
39074;SDS011;24826;52.070;20.970;2023-02-03T14:02:39;10.73;;;5.35;;
39074;SDS011;24826;52.070;20.970;2023-02-03T14:05:43;11.82;;;5.53;;
39074;SDS011;24826;52.070;20.970;2023-02-03T14:17:03;11.80;;;7.07;;
39074;SDS011;24826;52.070;20.970;2023-02-03T14:23:13;15.82;;;8.00;;
39074;SDS011;24826;52.070;20.970;2023-02-03T14:29:29;14.45;;;8.25;;
39074;SDS011;24826;52.070;20.970;2023-02-03T14:32:15;16.33;;;8.23;;
39074;SDS011;24826;52.070;20.970;2023-02-03T14:34:59;18.42;;;9.40;;
39074;SDS011;24826;52.070;20.970;2023-02-03T14:37:54;14.77;;;7.88;;
39074;SDS011;24826;52.070;20.970;2023-02-03T14:40:55;16.02;;;7.97;;
39074;SDS011;24826;52.070;20.970;2023-02-03T14:43:47;16.65;;;8.45;;
39074;SDS011;24826;52.070;20.970;2023-02-03T14:47:15;18.77;;;8.80;;
39074;SDS011;24826;52.070;20.970;2023-02-03T14:56:10;15.30;;;8.00;;
39074;SDS011;24826;52.070;20.970;2023-02-03T14:59:04;15.48;;;8.27;;
39074;SDS011;24826;52.070;20.970;2023-02-03T15:02:08;17.45;;;8.70;;
39074;SDS011;24826;52.070;20.970;2023-02-03T15:07:57;17.40;;;8.40;;
39074;SDS011;24826;52.070;20.970;2023-02-03T15:10:44;17.33;;;9.07;;
39074;SDS011;24826;52.070;20.970;2023-02-03T15:13:29;20.00;;;9.10;;
39074;SDS011;24826;52.070;20.970;2023-02-03T15:16:18;15.35;;;8.88;;
39074;SDS011;24826;52.070;20.970;2023-02-03T15:19:13;14.38;;;8.70;;
39074;SDS011;24826;52.070;20.970;2023-02-03T15:21:59;16.73;;;8.43;;
39074;SDS011;24826;52.070;20.970;2023-02-03T15:24:44;17.63;;;8.35;;
39074;SDS011;24826;52.070;20.970;2023-02-03T15:27:29;13.68;;;7.78;;
39074;SDS011;24826;52.070;20.970;2023-02-03T15:30:23;15.57;;;7.70;;
39074;SDS011;24826;52.070;20.970;2023-02-03T15:33:14;13.77;;;7.22;;
39074;SDS011;24826;52.070;20.970;2023-02-03T15:36:05;13.35;;;7.03;;
39074;SDS011;24826;52.070;20.970;2023-02-03T15:39:42;14.45;;;6.80;;
39074;SDS011;24826;52.070;20.970;2023-02-03T15:45:52;15.15;;;7.30;;
39074;SDS011;24826;52.070;20.970;2023-02-03T15:51:56;12.02;;;7.10;;
39074;SDS011;24826;52.070;20.970;2023-02-03T15:54:47;12.25;;;7.30;;
39074;SDS011;24826;52.070;20.970;2023-02-03T15:57:36;14.50;;;7.15;;
39074;SDS011;24826;52.070;20.970;2023-02-03T16:03:14;12.70;;;6.75;;
39074;SDS011;24826;52.070;20.970;2023-02-03T16:09:02;13.77;;;7.18;;
39074;SDS011;24826;52.070;20.970;2023-02-03T16:11:47;13.32;;;7.35;;
39074;SDS011;24826;52.070;20.970;2023-02-03T16:14:33;14.13;;;7.03;;
39074;SDS011;24826;52.070;20.970;2023-02-03T16:17:27;14.23;;;7.07;;
39074;SDS011;24826;52.070;20.970;2023-02-03T16:20:22;13.07;;;7.50;;
39074;SDS011;24826;52.070;20.970;2023-02-03T16:23:22;14.90;;;7.70;;
39074;SDS011;24826;52.070;20.970;2023-02-03T16:32:15;15.60;;;8.75;;
39074;SDS011;24826;52.070;20.970;2023-02-03T16:35:20;16.63;;;8.70;;
39074;SDS011;24826;52.070;20.970;2023-02-03T16:38:24;14.57;;;7.97;;
39074;SDS011;24826;52.070;20.970;2023-02-03T16:41:28;15.52;;;8.68;;
39074;SDS011;24826;52.070;20.970;2023-02-03T16:44:32;18.98;;;9.68;;
39074;SDS011;24826;52.070;20.970;2023-02-03T16:47:37;16.73;;;8.95;;
39074;SDS011;24826;52.070;20.970;2023-02-03T16:50:40;13.98;;;8.18;;
39074;SDS011;24826;52.070;20.970;2023-02-03T16:53:39;15.65;;;9.05;;
39074;SDS011;24826;52.070;20.970;2023-02-03T16:56:23;16.77;;;8.63;;
39074;SDS011;24826;52.070;20.970;2023-02-03T16:59:08;14.65;;;8.60;;
39074;SDS011;24826;52.070;20.970;2023-02-03T17:01:53;17.33;;;9.25;;
39074;SDS011;24826;52.070;20.970;2023-02-03T17:04:38;18.42;;;9.68;;
39074;SDS011;24826;52.070;20.970;2023-02-03T17:07:22;17.77;;;9.93;;
39074;SDS011;24826;52.070;20.970;2023-02-03T17:10:06;17.33;;;9.43;;
39074;SDS011;24826;52.070;20.970;2023-02-03T17:12:52;18.13;;;10.02;;
39074;SDS011;24826;52.070;20.970;2023-02-03T17:15:40;16.30;;;8.95;;
39074;SDS011;24826;52.070;20.970;2023-02-03T17:18:25;19.08;;;8.95;;
39074;SDS011;24826;52.070;20.970;2023-02-03T17:21:12;15.52;;;9.00;;
39074;SDS011;24826;52.070;20.970;2023-02-03T17:24:04;17.92;;;10.48;;
39074;SDS011;24826;52.070;20.970;2023-02-03T17:26:50;15.73;;;10.02;;
39074;SDS011;24826;52.070;20.970;2023-02-03T17:29:35;17.05;;;9.23;;
39074;SDS011;24826;52.070;20.970;2023-02-03T17:32:21;14.93;;;9.20;;
39074;SDS011;24826;52.070;20.970;2023-02-03T17:35:05;20.00;;;10.32;;
39074;SDS011;24826;52.070;20.970;2023-02-03T17:37:49;19.05;;;9.93;;
39074;SDS011;24826;52.070;20.970;2023-02-03T17:40:34;17.30;;;9.85;;
39074;SDS011;24826;52.070;20.970;2023-02-03T17:43:21;17.27;;;9.98;;
39074;SDS011;24826;52.070;20.970;2023-02-03T17:46:06;17.73;;;10.13;;
39074;SDS011;24826;52.070;20.970;2023-02-03T17:48:52;18.35;;;9.88;;
39074;SDS011;24826;52.070;20.970;2023-02-03T17:51:38;17.08;;;9.35;;
39074;SDS011;24826;52.070;20.970;2023-02-03T17:54:23;19.45;;;10.45;;
39074;SDS011;24826;52.070;20.970;2023-02-03T17:57:07;17.63;;;9.93;;
39074;SDS011;24826;52.070;20.970;2023-02-03T17:59:52;16.40;;;9.52;;
39074;SDS011;24826;52.070;20.970;2023-02-03T18:02:38;17.08;;;9.80;;
39074;SDS011;24826;52.070;20.970;2023-02-03T18:05:23;17.13;;;10.05;;
39074;SDS011;24826;52.070;20.970;2023-02-03T18:08:07;17.15;;;10.75;;
39074;SDS011;24826;52.070;20.970;2023-02-03T18:10:52;17.10;;;10.60;;
39074;SDS011;24826;52.070;20.970;2023-02-03T18:13:38;18.17;;;10.98;;
39074;SDS011;24826;52.070;20.970;2023-02-03T18:16:28;18.90;;;11.30;;
39074;SDS011;24826;52.070;20.970;2023-02-03T18:19:15;23.05;;;11.70;;
39074;SDS011;24826;52.070;20.970;2023-02-03T18:22:00;18.45;;;10.70;;
39074;SDS011;24826;52.070;20.970;2023-02-03T18:24:44;18.15;;;11.10;;
39074;SDS011;24826;52.070;20.970;2023-02-03T18:27:34;17.30;;;10.15;;
39074;SDS011;24826;52.070;20.970;2023-02-03T18:30:18;18.85;;;9.90;;
39074;SDS011;24826;52.070;20.970;2023-02-03T18:33:05;17.00;;;9.38;;
39074;SDS011;24826;52.070;20.970;2023-02-03T18:35:49;15.45;;;9.70;;
39074;SDS011;24826;52.070;20.970;2023-02-03T18:38:34;15.07;;;9.05;;
39074;SDS011;24826;52.070;20.970;2023-02-03T18:41:20;17.10;;;9.60;;
39074;SDS011;24826;52.070;20.970;2023-02-03T18:44:06;19.40;;;10.73;;